Time;durP1;ratioP1;P1;durP2;ratioP2;P2;SDS_P1;SDS_P2;PMS_P1;PMS_P2;Temp;Humidity;BMP_temperature;BMP_pressure;BME280_temperature;BME280_humidity;BME280_pressure;Samples;Min_cycle;Max_cycle;Signal;HPM_P1;HPM_P2
2022/01/15 00:02:05;;;;;;;;;;;6.10;99.90;;;;;;5075923;28;19931;-49
2022/01/15 00:04:31;;;;;;;;;;;6.10;99.90;;;;;;5100517;27;19923;-52
2022/01/15 00:06:56;;;;;;;;;;;6.10;99.90;;;;;;5082230;28;19923;-51
2022/01/15 00:09:22;;;;;;;;;;;6.10;99.90;;;;;;5071932;28;19969;-48
2022/01/15 00:11:48;;;;;;;;;;;6.10;99.90;;;;;;5071232;28;20308;-49
2022/01/15 00:14:24;;;;;;;;;;;6.10;99.90;;;;;;5081627;28;20451;-49
2022/01/15 00:16:56;;;;;;;;;;;6.00;99.90;;;;;;5077264;28;19995;-49
2022/01/15 00:19:34;;;;;;;;;;;6.00;99.90;;;;;;5083816;28;19954;-49
2022/01/15 00:21:59;;;;;;;;;;;6.00;99.90;;;;;;5079478;28;19920;-51
2022/01/15 00:24:34;;;;;;;;;;;6.00;99.90;;;;;;5055552;28;20489;-48
2022/01/15 00:27:00;;;;;;;;;;;5.90;99.90;;;;;;5070421;28;19935;-49
2022/01/15 00:29:26;;;;;;;;;;;5.90;99.90;;;;;;5075047;28;19924;-49
2022/01/15 00:31:52;;;;;;;;;;;5.90;99.90;;;;;;5091602;28;19924;-51
2022/01/15 00:34:17;;;;;;;;;;;5.90;99.90;;;;;;5093329;28;19916;-48
2022/01/15 00:36:43;;;;;;;;;;;5.90;99.90;;;;;;5072908;28;19916;-48
2022/01/15 00:39:09;;;;;;;;;;;5.90;99.90;;;;;;5078688;28;20299;-49
2022/01/15 00:41:34;;;;;;;;;;;5.90;99.90;;;;;;5087517;28;19926;-51
2022/01/15 00:44:00;;;;;;;;;;;5.80;99.90;;;;;;5107433;27;19920;-51
2022/01/15 00:46:26;;;;;;;;;;;5.80;99.90;;;;;;5073463;28;19966;-49
2022/01/15 00:48:52;;;;;;;;;;;5.80;99.90;;;;;;5078876;28;19920;-49
2022/01/15 00:51:18;;;;;;;;;;;5.80;99.90;;;;;;5088617;28;19923;-49
2022/01/15 00:53:43;;;;;;;;;;;5.80;99.90;;;;;;5056218;28;19961;-48
2022/01/15 00:56:10;;;;;;;;;;;5.80;99.90;;;;;;5087221;28;19951;-49
2022/01/15 00:58:36;;;;;;;;;;;5.70;99.90;;;;;;5085375;28;19916;-48
2022/01/15 01:01:01;;;;;;;;;;;5.70;99.90;;;;;;5091563;28;19923;-49
2022/01/15 01:03:27;;;;;;;;;;;5.70;99.90;;;;;;5086048;28;20843;-48
2022/01/15 01:05:53;;;;;;;;;;;5.70;99.90;;;;;;5088424;28;20006;-49
2022/01/15 01:08:19;;;;;;;;;;;5.70;99.90;;;;;;5058567;28;20003;-48
2022/01/15 01:24:00;;;;;;;;;;;5.70;99.90;;;;;;5067570;28;19973;-50
2022/01/15 01:26:32;;;;;;;;;;;5.60;99.90;;;;;;5063904;28;19975;-48
2022/01/15 01:29:00;;;;;;;;;;;5.70;99.90;;;;;;5070162;28;20008;-51
2022/01/15 01:31:36;;;;;;;;;;;5.60;99.90;;;;;;5070392;28;19916;-52
2022/01/15 01:34:12;;;;;;;;;;;5.60;99.90;;;;;;5082195;28;20461;-48
2022/01/15 01:39:13;;;;;;;;;;;5.60;99.90;;;;;;5066858;28;19931;-50
2022/01/15 01:41:47;;;;;;;;;;;5.50;99.90;;;;;;5064740;28;19920;-49
2022/01/15 01:44:17;;;;;;;;;;;5.50;99.90;;;;;;5081592;28;20712;-51
2022/01/15 01:46:50;;;;;;;;;;;5.50;99.90;;;;;;5096225;28;19916;-52
2022/01/15 01:49:16;;;;;;;;;;;5.50;99.90;;;;;;5082964;28;20378;-50
2022/01/15 01:51:42;;;;;;;;;;;5.50;99.90;;;;;;5067215;28;19974;-51
2022/01/15 01:54:11;;;;;;;;;;;5.50;99.90;;;;;;5071173;28;19924;-47
2022/01/15 01:56:37;;;;;;;;;;;5.50;99.90;;;;;;5063407;28;19920;-50
2022/01/15 01:59:04;;;;;;;;;;;5.50;99.90;;;;;;5063435;28;19924;-48
2022/01/15 02:01:29;;;;;;;;;;;6.00;99.90;;;;;;5083632;28;19920;-49
2022/01/15 02:03:55;;;;;;;;;;;5.50;99.90;;;;;;5065578;28;20490;-49
2022/01/15 02:06:21;;;;;;;;;;;5.50;99.90;;;;;;5064411;28;19946;-47
2022/01/15 02:08:47;;;;;;;;;;;5.60;99.90;;;;;;5067091;28;19927;-48
2022/01/15 02:11:14;;;;;;;;;;;5.50;99.90;;;;;;5069889;28;19920;-51
2022/01/15 02:13:41;;;;;;;;;;;5.50;99.90;;;;;;5064782;28;20378;-48
2022/01/15 02:16:07;;;;;;;;;;;5.50;99.90;;;;;;5093883;28;20386;-48
2022/01/15 02:18:34;;;;;;;;;;;5.50;99.90;;;;;;5096944;28;20257;-47
2022/01/15 02:23:51;;;;;;;;;;;5.40;99.90;;;;;;5057616;28;19935;-48
2022/01/15 02:26:17;;;;;;;;;;;5.50;99.90;;;;;;5069316;28;19920;-49
2022/01/15 02:28:44;;;;;;;;;;;5.50;99.90;;;;;;5072713;28;19989;-49
2022/01/15 02:31:11;;;;;;;;;;;5.50;99.90;;;;;;5068654;28;19920;-49
2022/01/15 02:33:37;;;;;;;;;;;5.50;99.90;;;;;;5054232;28;19916;-52
2022/01/15 02:36:04;;;;;;;;;;;5.50;99.90;;;;;;5086018;28;20059;-51
2022/01/15 02:38:30;;;;;;;;;;;5.50;99.90;;;;;;5066452;28;19927;-53
2022/01/15 02:40:56;;;;;;;;;;;5.50;99.90;;;;;;5084271;28;19924;-49
2022/01/15 02:43:28;;;;;;;;;;;5.50;99.90;;;;;;5068288;28;19959;-48
2022/01/15 02:45:55;;;;;;;;;;;5.50;99.90;;;;;;5074599;28;19927;-49
2022/01/15 02:48:23;;;;;;;;;;;5.50;99.90;;;;;;5084523;28;19920;-48
2022/01/15 02:50:49;;;;;;;;;;;5.50;99.90;;;;;;5085250;28;20364;-52
2022/01/15 02:53:16;;;;;;;;;;;5.60;99.90;;;;;;5071667;28;19920;-48
2022/01/15 02:55:42;;;;;;;;;;;5.50;99.90;;;;;;5087974;28;20390;-48
2022/01/15 02:58:09;;;;;;;;;;;5.50;99.90;;;;;;5078011;28;20387;-49
2022/01/15 03:00:35;;;;;;;;;;;5.50;99.90;;;;;;5075416;28;20334;-47
2022/01/15 03:03:01;;;;;;;;;;;5.50;99.90;;;;;;5092531;28;19924;-50
2022/01/15 03:05:27;;;;;;;;;;;5.50;99.90;;;;;;5073730;28;19923;-51
2022/01/15 03:07:53;;;;;;;;;;;5.50;99.90;;;;;;5089867;28;19916;-47
2022/01/15 03:10:34;;;;;;;;;;;5.50;99.90;;;;;;5074252;28;19924;-48
2022/01/15 03:13:01;;;;;;;;;;;5.50;99.90;;;;;;5084804;28;20049;-52
2022/01/15 03:15:28;;;;;;;;;;;5.50;99.90;;;;;;5075224;28;19923;-50
2022/01/15 03:17:54;;;;;;;;;;;5.50;99.90;;;;;;5093336;28;19920;-52
2022/01/15 03:20:20;;;;;;;;;;;5.50;99.90;;;;;;5078156;28;19920;-52
2022/01/15 03:22:46;;;;;;;;;;;5.50;99.90;;;;;;5090031;28;20052;-50
2022/01/15 03:25:12;;;;;;;;;;;5.40;99.90;;;;;;5071635;28;20015;-50
2022/01/15 03:27:37;;;;;;;;;;;5.40;99.90;;;;;;5056783;28;20501;-47
2022/01/15 03:30:04;;;;;;;;;;;5.40;99.90;;;;;;5078496;28;19916;-48
2022/01/15 03:32:30;;;;;;;;;;;5.40;99.90;;;;;;5073887;28;19920;-49
2022/01/15 03:34:56;;;;;;;;;;;5.40;99.90;;;;;;5091405;28;19923;-49
2022/01/15 03:37:22;;;;;;;;;;;5.40;99.90;;;;;;5091795;28;19977;-48
2022/01/15 03:39:47;;;;;;;;;;;5.40;99.90;;;;;;5081224;28;19931;-51
2022/01/15 03:42:13;;;;;;;;;;;5.30;99.90;;;;;;5073822;28;19948;-48
2022/01/15 03:44:39;;;;;;;;;;;5.30;99.90;;;;;;5080388;28;20600;-49
2022/01/15 03:47:05;;;;;;;;;;;5.30;99.90;;;;;;5071519;28;20406;-49
2022/01/15 03:49:30;;;;;;;;;;;5.20;99.90;;;;;;5064559;28;20018;-52
2022/01/15 03:51:56;;;;;;;;;;;5.20;99.90;;;;;;5075823;28;20377;-49
2022/01/15 03:54:22;;;;;;;;;;;5.20;99.90;;;;;;5092868;28;20014;-49
2022/01/15 03:56:47;;;;;;;;;;;5.10;99.90;;;;;;5089026;28;19923;-52
2022/01/15 03:59:13;;;;;;;;;;;5.10;99.90;;;;;;5078839;28;20381;-49
2022/01/15 04:01:39;;;;;;;;;;;5.10;99.90;;;;;;5056394;28;20251;-49
2022/01/15 04:04:05;;;;;;;;;;;5.10;99.90;;;;;;5069636;28;19998;-50
2022/01/15 04:06:30;;;;;;;;;;;5.10;99.90;;;;;;5088030;28;20362;-49
2022/01/15 04:08:56;;;;;;;;;;;5.10;99.90;;;;;;5075042;28;19998;-50
2022/01/15 04:11:22;;;;;;;;;;;5.10;99.90;;;;;;5074783;28;19919;-49
2022/01/15 04:13:49;;;;;;;;;;;5.10;99.90;;;;;;5089482;28;20388;-48
2022/01/15 04:16:14;;;;;;;;;;;5.20;99.90;;;;;;5049980;28;19919;-49
2022/01/15 04:18:41;;;;;;;;;;;5.20;99.90;;;;;;5057765;28;19935;-49
2022/01/15 04:21:10;;;;;;;;;;;5.20;99.90;;;;;;5059901;28;20374;-48
2022/01/15 04:23:37;;;;;;;;;;;5.20;99.90;;;;;;5046493;28;19923;-48
2022/01/15 04:26:03;;;;;;;;;;;5.20;99.90;;;;;;5029819;28;20511;-51
2022/01/15 04:28:31;;;;;;;;;;;5.20;99.90;;;;;;5053477;28;19916;-52
2022/01/15 04:31:04;;;;;;;;;;;5.20;99.90;;;;;;5068818;28;19947;-51
2022/01/15 04:33:34;;;;;;;;;;;5.20;99.90;;;;;;5071019;28;19920;-51
2022/01/15 04:35:59;;;;;;;;;;;5.20;99.90;;;;;;5036455;28;19923;-51
2022/01/15 04:38:25;;;;;;;;;;;5.30;99.90;;;;;;5052515;28;19916;-52
2022/01/15 04:40:51;;;;;;;;;;;5.30;99.90;;;;;;5069259;28;19924;-48
2022/01/15 04:43:17;;;;;;;;;;;5.30;99.90;;;;;;5069304;28;19920;-47
2022/01/15 04:45:43;;;;;;;;;;;5.30;99.90;;;;;;5072281;28;19923;-51
2022/01/15 04:48:09;;;;;;;;;;;5.30;99.90;;;;;;5051098;28;20388;-50
2022/01/15 04:50:34;;;;;;;;;;;5.30;99.90;;;;;;5066409;28;20118;-48
2022/01/15 04:53:00;;;;;;;;;;;5.30;99.90;;;;;;5084800;28;19923;-51
2022/01/15 04:55:26;;;;;;;;;;;5.30;99.90;;;;;;5053528;28;19917;-49
2022/01/15 04:57:52;;;;;;;;;;;5.30;99.90;;;;;;5054119;28;19922;-48
2022/01/15 05:00:18;;;;;;;;;;;5.30;99.90;;;;;;5069492;28;19995;-51
2022/01/15 05:02:44;;;;;;;;;;;5.30;99.90;;;;;;5057086;28;19920;-48
2022/01/15 05:05:10;;;;;;;;;;;5.30;99.90;;;;;;5072910;28;20366;-48
2022/01/15 05:07:36;;;;;;;;;;;5.30;99.90;;;;;;5069723;28;19916;-51
2022/01/15 05:10:04;;;;;;;;;;;5.30;99.90;;;;;;5067658;28;20267;-50
2022/01/15 05:12:40;;;;;;;;;;;5.30;99.90;;;;;;5067616;28;19928;-51
2022/01/15 05:15:06;;;;;;;;;;;5.30;99.90;;;;;;5082872;28;19920;-48
2022/01/15 05:17:32;;;;;;;;;;;5.30;99.90;;;;;;5054588;28;19920;-50
2022/01/15 05:19:58;;;;;;;;;;;5.30;99.90;;;;;;5068194;28;19923;-51
2022/01/15 05:22:24;;;;;;;;;;;5.30;99.90;;;;;;5051242;28;20538;-48
2022/01/15 05:24:50;;;;;;;;;;;5.30;99.90;;;;;;5068807;28;20235;-49
2022/01/15 05:27:15;;;;;;;;;;;5.30;99.90;;;;;;5079946;28;20156;-48
2022/01/15 05:29:41;;;;;;;;;;;5.30;99.90;;;;;;5066917;28;19920;-48
2022/01/15 05:32:08;;;;;;;;;;;5.30;99.90;;;;;;5063576;28;20023;-48
2022/01/15 05:34:33;;;;;;;;;;;5.30;99.90;;;;;;5059431;28;19939;-48
2022/01/15 05:36:59;;;;;;;;;;;5.30;99.90;;;;;;5066381;28;20584;-51
2022/01/15 05:39:25;;;;;;;;;;;5.30;99.90;;;;;;5049003;28;20301;-48
2022/01/15 05:41:51;;;;;;;;;;;5.30;99.90;;;;;;5097938;27;19917;-47
2022/01/15 05:44:16;;;;;;;;;;;5.30;99.90;;;;;;5064407;28;20450;-51
2022/01/15 05:46:44;;;;;;;;;;;5.30;99.90;;;;;;5068636;28;20008;-49
2022/01/15 05:49:10;;;;;;;;;;;5.30;99.90;;;;;;5062356;28;19927;-48
2022/01/15 05:51:35;;;;;;;;;;;5.30;99.90;;;;;;5081102;28;19916;-49
2022/01/15 05:54:03;;;;;;;;;;;5.30;99.90;;;;;;5096403;27;19947;-48
2022/01/15 05:56:29;;;;;;;;;;;5.30;99.90;;;;;;5068888;28;19923;-48
2022/01/15 05:58:55;;;;;;;;;;;5.30;99.90;;;;;;5062742;28;19982;-51
2022/01/15 06:01:22;;;;;;;;;;;5.30;99.90;;;;;;5095573;28;20358;-49
2022/01/15 06:03:47;;;;;;;;;;;5.30;99.90;;;;;;5064581;28;19981;-50
2022/01/15 06:06:13;;;;;;;;;;;5.30;99.90;;;;;;5068529;28;19916;-48
2022/01/15 06:09:02;;;;;;;;;;;5.30;99.90;;;;;;5049741;28;20488;-48
2022/01/15 06:11:28;;;;;;;;;;;5.20;99.90;;;;;;5065152;28;20050;-47
2022/01/15 06:13:54;;;;;;;;;;;5.20;99.90;;;;;;5082867;28;20444;-52
2022/01/15 06:16:20;;;;;;;;;;;5.30;99.90;;;;;;5064579;28;21258;-48
2022/01/15 06:18:46;;;;;;;;;;;5.30;99.90;;;;;;5069114;28;19973;-52
2022/01/15 06:21:12;;;;;;;;;;;5.30;99.90;;;;;;5062655;28;20015;-51
2022/01/15 06:23:38;;;;;;;;;;;5.30;99.90;;;;;;5070457;28;19924;-49
2022/01/15 06:26:03;;;;;;;;;;;5.20;99.90;;;;;;5096477;28;19928;-48
2022/01/15 06:28:29;;;;;;;;;;;5.30;99.90;;;;;;5032149;28;19921;-49
2022/01/15 06:30:55;;;;;;;;;;;5.20;99.90;;;;;;5067428;28;19920;-48
2022/01/15 06:33:21;;;;;;;;;;;5.30;99.90;;;;;;5055128;28;19924;-49
2022/01/15 06:35:47;;;;;;;;;;;5.20;99.90;;;;;;5067013;28;20360;-51
2022/01/15 06:38:13;;;;;;;;;;;5.20;99.90;;;;;;5066798;28;19916;-51
2022/01/15 06:40:39;;;;;;;;;;;5.30;99.90;;;;;;5037079;28;19943;-47
2022/01/15 06:43:06;;;;;;;;;;;5.20;99.90;;;;;;5067650;28;19924;-50
2022/01/15 06:45:32;;;;;;;;;;;5.20;99.90;;;;;;5071625;28;19924;-49
2022/01/15 06:47:58;;;;;;;;;;;5.20;99.90;;;;;;5059893;28;20011;-52
2022/01/15 06:50:25;;;;;;;;;;;5.20;99.90;;;;;;5068750;28;19999;-50
2022/01/15 06:52:51;;;;;;;;;;;5.20;99.90;;;;;;5068883;28;19916;-48
2022/01/15 06:55:17;;;;;;;;;;;5.20;99.90;;;;;;5054234;28;20364;-48
2022/01/15 06:57:43;;;;;;;;;;;5.20;99.90;;;;;;5068518;28;19999;-48
2022/01/15 07:00:10;;;;;;;;;;;5.20;99.90;;;;;;5053853;28;20206;-48
2022/01/15 07:02:36;;;;;;;;;;;5.20;99.90;;;;;;5036342;28;19924;-52
2022/01/15 07:05:02;;;;;;;;;;;5.20;99.90;;;;;;5054164;28;19928;-47
2022/01/15 07:07:28;;;;;;;;;;;5.20;99.90;;;;;;5069044;28;19951;-48
2022/01/15 07:09:54;;;;;;;;;;;5.20;99.90;;;;;;5035851;28;19916;-48
2022/01/15 07:12:23;;;;;;;;;;;5.20;99.90;;;;;;5033419;28;19963;-50
2022/01/15 07:14:48;;;;;;;;;;;5.20;99.90;;;;;;5067942;28;19916;-52
2022/01/15 07:17:14;;;;;;;;;;;5.20;99.90;;;;;;5080325;28;19920;-50
2022/01/15 07:19:40;;;;;;;;;;;5.20;99.90;;;;;;5055493;28;20083;-51
2022/01/15 07:22:06;;;;;;;;;;;5.20;99.90;;;;;;5054053;28;20421;-49
2022/01/15 07:24:32;;;;;;;;;;;5.10;99.90;;;;;;5036443;28;19928;-48
2022/01/15 07:26:57;;;;;;;;;;;5.10;99.90;;;;;;5096135;27;19997;-49
2022/01/15 07:29:24;;;;;;;;;;;5.10;99.90;;;;;;5070674;28;19920;-48
2022/01/15 07:31:51;;;;;;;;;;;5.10;99.90;;;;;;5102565;27;20398;-50
2022/01/15 07:34:18;;;;;;;;;;;5.10;99.90;;;;;;5068434;28;20355;-47
2022/01/15 07:36:45;;;;;;;;;;;5.10;99.90;;;;;;5070080;28;19999;-49
2022/01/15 07:39:11;;;;;;;;;;;5.10;99.90;;;;;;5098971;27;19924;-48
2022/01/15 07:41:37;;;;;;;;;;;5.10;99.90;;;;;;5070823;28;20277;-49
2022/01/15 07:44:03;;;;;;;;;;;5.10;99.90;;;;;;5070073;28;20055;-48
2022/01/15 07:46:28;;;;;;;;;;;5.10;99.90;;;;;;5085583;28;20587;-49
2022/01/15 07:48:54;;;;;;;;;;;5.10;99.90;;;;;;5069284;28;19989;-49
2022/01/15 07:51:20;;;;;;;;;;;5.10;99.90;;;;;;5071173;28;20290;-50
2022/01/15 07:53:46;;;;;;;;;;;5.20;99.90;;;;;;5067871;28;19921;-51
2022/01/15 07:56:12;;;;;;;;;;;5.20;99.90;;;;;;5069728;28;19932;-47
2022/01/15 07:58:38;;;;;;;;;;;5.10;99.90;;;;;;5067704;28;20370;-48
2022/01/15 08:01:05;;;;;;;;;;;5.20;99.90;;;;;;5065835;28;19973;-49
2022/01/15 08:03:32;;;;;;;;;;;5.20;99.90;;;;;;5071236;28;19928;-49
2022/01/15 08:05:57;;;;;;;;;;;5.20;99.90;;;;;;5067051;28;20416;-49
2022/01/15 08:08:23;;;;;;;;;;;5.20;99.90;;;;;;5072377;28;19982;-50
2022/01/15 08:10:49;;;;;;;;;;;5.20;99.90;;;;;;5068638;28;19916;-47
2022/01/15 08:13:16;;;;;;;;;;;5.20;99.90;;;;;;5072589;28;19927;-50
2022/01/15 08:15:42;;;;;;;;;;;5.20;99.90;;;;;;5049887;28;19959;-50
2022/01/15 08:18:07;;;;;;;;;;;5.20;99.90;;;;;;5099436;28;20088;-51
2022/01/15 08:20:33;;;;;;;;;;;5.20;99.90;;;;;;5069318;28;19977;-51
2022/01/15 08:23:05;;;;;;;;;;;5.20;99.90;;;;;;5065894;28;19920;-49
2022/01/15 08:25:31;;;;;;;;;;;5.20;99.90;;;;;;5064103;28;20433;-51
2022/01/15 08:27:57;;;;;;;;;;;5.20;99.90;;;;;;5066619;28;20378;-50
2022/01/15 08:30:22;;;;;;;;;;;5.20;99.90;;;;;;5048628;28;19920;-51
2022/01/15 08:32:51;;;;;;;;;;;5.20;99.90;;;;;;5064297;28;19920;-51
2022/01/15 08:35:17;;;;;;;;;;;5.20;99.90;;;;;;5046673;28;20020;-50
2022/01/15 08:37:43;;;;;;;;;;;5.30;99.90;;;;;;5017083;28;19986;-48
2022/01/15 08:40:37;;;;;;;;;;;5.30;99.90;;;;;;5066797;28;19923;-50
2022/01/15 08:43:03;;;;;;;;;;;5.30;99.90;;;;;;5064181;28;20519;-47
2022/01/15 08:45:29;;;;;;;;;;;5.30;99.90;;;;;;5066436;28;19917;-50
2022/01/15 08:47:55;;;;;;;;;;;5.30;99.90;;;;;;5047549;28;19978;-47
2022/01/15 08:50:21;;;;;;;;;;;5.30;99.90;;;;;;5048954;28;20462;-50
2022/01/15 08:53:20;;;;;;;;;;;5.30;99.90;;;;;;5064065;28;19916;-47
2022/01/15 08:55:46;;;;;;;;;;;5.30;99.90;;;;;;5067041;28;19924;-47
2022/01/15 08:58:31;;;;;;;;;;;5.30;99.90;;;;;;5066059;28;20097;-47
2022/01/15 09:00:57;;;;;;;;;;;5.30;99.90;;;;;;5032830;28;19970;-48
2022/01/15 09:03:24;;;;;;;;;;;5.30;99.90;;;;;;5062507;28;19932;-48
2022/01/15 09:05:51;;;;;;;;;;;5.30;99.90;;;;;;5064722;28;19974;-49
2022/01/15 09:08:48;;;;;;;;;;;5.30;99.90;;;;;;5047930;28;19921;-48
2022/01/15 09:11:14;;;;;;;;;;;5.30;99.90;;;;;;5050543;28;19924;-49
2022/01/15 09:13:40;;;;;;;;;;;5.30;99.90;;;;;;5048324;28;20001;-48
2022/01/15 09:16:06;;;;;;;;;;;5.30;99.90;;;;;;5062373;28;19956;-48
2022/01/15 09:18:36;;;;;;;;;;;5.30;99.90;;;;;;5069594;28;19964;-49
2022/01/15 09:21:02;;;;;;;;;;;5.30;99.90;;;;;;5047210;28;19920;-48
2022/01/15 09:23:28;;;;;;;;;;;5.30;99.90;;;;;;5065530;28;19916;-47
2022/01/15 09:25:54;;;;;;;;;;;5.40;99.90;;;;;;5065426;28;20667;-48
2022/01/15 09:31:04;;;;;;;;;;;5.30;99.90;;;;;;5079810;28;20003;-48
2022/01/15 09:33:42;;;;;;;;;;;5.40;99.90;;;;;;5048189;28;20353;-48
2022/01/15 09:36:08;;;;;;;;;;;5.40;99.90;;;;;;5063193;28;20262;-46
2022/01/15 09:38:34;;;;;;;;;;;5.40;99.90;;;;;;5065611;28;19923;-49
2022/01/15 09:40:59;;;;;;;;;;;5.40;99.90;;;;;;5064848;28;19920;-48
2022/01/15 09:43:34;;;;;;;;;;;5.40;99.90;;;;;;5047005;28;20381;-53
2022/01/15 09:46:04;;;;;;;;;;;5.40;99.90;;;;;;5066943;28;19947;-49
2022/01/15 09:48:30;;;;;;;;;;;5.50;99.90;;;;;;5078856;28;19925;-50
2022/01/15 09:50:57;;;;;;;;;;;5.50;99.90;;;;;;5050178;28;20627;-49
2022/01/15 09:53:23;;;;;;;;;;;5.50;99.90;;;;;;5062804;28;19922;-50
2022/01/15 09:55:49;;;;;;;;;;;5.50;99.90;;;;;;5042312;28;19921;-47
2022/01/15 09:58:16;;;;;;;;;;;5.50;99.90;;;;;;5062311;28;19925;-50
2022/01/15 10:00:42;;;;;;;;;;;5.50;99.90;;;;;;5045469;28;19924;-49
2022/01/15 10:03:07;;;;;;;;;;;5.50;99.90;;;;;;5043943;28;19971;-49
2022/01/15 10:05:33;;;;;;;;;;;5.50;99.90;;;;;;5047670;28;19992;-49
2022/01/15 10:08:01;;;;;;;;;;;5.50;99.90;;;;;;5065174;28;19931;-49
2022/01/15 10:10:28;;;;;;;;;;;5.50;99.90;;;;;;5077441;28;20389;-47
2022/01/15 10:12:54;;;;;;;;;;;5.50;99.90;;;;;;5061644;28;20298;-49
2022/01/15 10:15:20;;;;;;;;;;;5.50;99.90;;;;;;5047402;28;19927;-50
2022/01/15 10:17:46;;;;;;;;;;;5.50;99.90;;;;;;5034941;28;20290;-50
2022/01/15 10:20:14;;;;;;;;;;;5.50;99.90;;;;;;5069702;28;20317;-49
2022/01/15 10:22:50;;;;;;;;;;;5.60;99.90;;;;;;5078483;28;20370;-51
2022/01/15 10:25:24;;;;;;;;;;;5.50;99.90;;;;;;5062883;28;19995;-49
2022/01/15 10:27:51;;;;;;;;;;;5.60;99.90;;;;;;5044996;28;19924;-52
2022/01/15 10:30:27;;;;;;;;;;;5.60;99.90;;;;;;5049985;28;19967;-47
2022/01/15 10:32:55;;;;;;;;;;;5.60;99.90;;;;;;5063988;28;19924;-47
2022/01/15 10:35:22;;;;;;;;;;;5.60;99.90;;;;;;5052542;28;20362;-52
2022/01/15 10:37:49;;;;;;;;;;;5.60;99.90;;;;;;5062540;28;19928;-51
2022/01/15 10:40:20;;;;;;;;;;;5.60;99.90;;;;;;5044039;28;19920;-46
2022/01/15 10:42:56;;;;;;;;;;;5.60;99.90;;;;;;5064702;28;20011;-47
2022/01/15 10:45:24;;;;;;;;;;;5.60;99.90;;;;;;5081064;28;20297;-51
2022/01/15 10:48:01;;;;;;;;;;;5.60;99.90;;;;;;5045024;28;20546;-49
2022/01/15 10:50:29;;;;;;;;;;;5.60;99.90;;;;;;5056122;28;19950;-48
2022/01/15 10:52:56;;;;;;;;;;;5.60;99.90;;;;;;5060218;28;19924;-51
2022/01/15 10:55:47;;;;;;;;;;;5.70;99.90;;;;;;5046262;28;19962;-49
2022/01/15 10:58:14;;;;;;;;;;;5.70;99.90;;;;;;5061319;28;20429;-51
2022/01/15 11:00:41;;;;;;;;;;;5.70;99.90;;;;;;5046812;28;19924;-53
2022/01/15 11:03:10;;;;;;;;;;;5.60;99.90;;;;;;5063716;28;20002;-48
2022/01/15 11:05:38;;;;;;;;;;;5.60;99.90;;;;;;5045584;28;20306;-49
2022/01/15 11:08:08;;;;;;;;;;;5.70;99.90;;;;;;5078959;28;20048;-51
2022/01/15 11:10:48;;;;;;;;;;;5.70;99.90;;;;;;5061790;28;19924;-48
2022/01/15 11:13:15;;;;;;;;;;;5.70;99.90;;;;;;5047530;28;19963;-47
2022/01/15 11:15:51;;;;;;;;;;;5.60;99.90;;;;;;5064961;28;20410;-50
2022/01/15 11:18:19;;;;;;;;;;;5.60;99.90;;;;;;5067812;28;19927;-48
2022/01/15 11:20:46;;;;;;;;;;;5.60;99.90;;;;;;5063876;28;19995;-48
2022/01/15 11:23:12;;;;;;;;;;;5.60;99.90;;;;;;5065710;28;20375;-48
2022/01/15 11:25:38;;;;;;;;;;;5.60;99.90;;;;;;5066600;28;19921;-51
2022/01/15 11:28:23;;;;;;;;;;;5.60;99.90;;;;;;5069918;28;20007;-52
2022/01/15 11:30:51;;;;;;;;;;;5.60;99.90;;;;;;5068481;28;19916;-47
2022/01/15 11:33:21;;;;;;;;;;;5.60;99.90;;;;;;5063854;28;19943;-49
2022/01/15 11:35:48;;;;;;;;;;;5.50;99.90;;;;;;5046764;28;19920;-50
2022/01/15 11:38:32;;;;;;;;;;;5.60;99.90;;;;;;5066724;28;20441;-48
2022/01/15 11:41:05;;;;;;;;;;;5.60;99.90;;;;;;5069809;28;19920;-51
2022/01/15 11:43:37;;;;;;;;;;;5.60;99.90;;;;;;5044682;28;19920;-51
2022/01/15 11:46:04;;;;;;;;;;;5.60;99.90;;;;;;5046255;28;19916;-47
2022/01/15 11:48:35;;;;;;;;;;;5.60;99.90;;;;;;5047473;28;20298;-51
2022/01/15 11:51:13;;;;;;;;;;;5.60;99.90;;;;;;5063510;28;19924;-52
2022/01/15 11:53:46;;;;;;;;;;;5.60;99.90;;;;;;5068306;28;19951;-49
2022/01/15 11:56:19;;;;;;;;;;;5.60;99.90;;;;;;5066191;28;19920;-48
2022/01/15 11:58:46;;;;;;;;;;;5.50;99.90;;;;;;5063715;28;19982;-49
2022/01/15 12:01:30;;;;;;;;;;;5.60;99.90;;;;;;5046757;28;20050;-51
2022/01/15 12:04:15;;;;;;;;;;;5.60;99.90;;;;;;5048945;28;19928;-47
2022/01/15 12:06:59;;;;;;;;;;;5.60;99.90;;;;;;5046744;28;20358;-47
2022/01/15 12:09:32;;;;;;;;;;;5.50;99.90;;;;;;5067137;28;19967;-51
2022/01/15 12:11:58;;;;;;;;;;;5.50;99.90;;;;;;5076955;28;19931;-52
2022/01/15 12:14:42;;;;;;;;;;;5.50;99.90;;;;;;5067136;28;20389;-50
2022/01/15 12:17:31;;;;;;;;;;;5.50;99.90;;;;;;5066291;28;19943;-52
2022/01/15 12:19:58;;;;;;;;;;;5.50;99.90;;;;;;5064703;28;20358;-50
2022/01/15 12:22:43;;;;;;;;;;;5.60;99.90;;;;;;5081136;28;20011;-52
2022/01/15 12:25:10;;;;;;;;;;;5.50;99.90;;;;;;5066665;28;19932;-52
2022/01/15 12:27:36;;;;;;;;;;;5.50;99.90;;;;;;5066708;28;19928;-50
2022/01/15 12:30:14;;;;;;;;;;;5.50;99.90;;;;;;5049862;28;19931;-51
2022/01/15 12:33:00;;;;;;;;;;;5.50;99.90;;;;;;5068829;28;19920;-49
2022/01/15 12:35:27;;;;;;;;;;;5.50;99.90;;;;;;5047954;28;19920;-50
2022/01/15 12:38:15;;;;;;;;;;;5.50;99.90;;;;;;5046496;28;20311;-50
2022/01/15 12:40:45;;;;;;;;;;;5.40;99.90;;;;;;5049013;28;20257;-50
2022/01/15 12:43:20;;;;;;;;;;;5.40;99.90;;;;;;5065406;28;19977;-49
2022/01/15 12:45:47;;;;;;;;;;;5.40;99.90;;;;;;5070053;28;19920;-51
2022/01/15 12:48:17;;;;;;;;;;;5.40;99.90;;;;;;5065542;28;20336;-51
2022/01/15 12:50:46;;;;;;;;;;;5.40;99.90;;;;;;5065863;28;19923;-50
2022/01/15 12:53:12;;;;;;;;;;;5.40;99.90;;;;;;5047194;28;19955;-50
2022/01/15 12:55:38;;;;;;;;;;;5.50;99.90;;;;;;5067136;28;19916;-47
2022/01/15 12:58:05;;;;;;;;;;;5.40;99.90;;;;;;5032782;28;19920;-51
2022/01/15 13:00:32;;;;;;;;;;;5.30;99.90;;;;;;5065893;28;19964;-47
2022/01/15 13:03:08;;;;;;;;;;;5.30;99.90;;;;;;5047445;28;19916;-51
2022/01/15 13:05:35;;;;;;;;;;;5.30;99.90;;;;;;5065017;28;20010;-48
2022/01/15 13:08:03;;;;;;;;;;;5.20;99.90;;;;;;5063654;28;19920;-50
2022/01/15 13:10:32;;;;;;;;;;;5.20;99.90;;;;;;5046662;28;19917;-49
2022/01/15 13:12:58;;;;;;;;;;;5.20;99.90;;;;;;5047143;28;20015;-49
2022/01/15 13:15:28;;;;;;;;;;;5.20;99.90;;;;;;5049147;28;19925;-50
2022/01/15 13:17:54;;;;;;;;;;;5.20;99.90;;;;;;5081792;28;19924;-50
2022/01/15 13:20:44;;;;;;;;;;;5.20;99.90;;;;;;5081543;28;19943;-49
2022/01/15 13:23:10;;;;;;;;;;;5.20;99.90;;;;;;5080970;28;19924;-54
2022/01/15 13:25:36;;;;;;;;;;;5.20;99.90;;;;;;5062299;28;19939;-51
2022/01/15 13:28:02;;;;;;;;;;;5.20;99.90;;;;;;5067566;28;19924;-50
2022/01/15 13:30:28;;;;;;;;;;;5.20;99.90;;;;;;5066190;28;19927;-48
2022/01/15 13:32:55;;;;;;;;;;;5.30;99.90;;;;;;5052480;28;19920;-47
2022/01/15 13:35:23;;;;;;;;;;;5.30;99.90;;;;;;5049682;28;19916;-48
2022/01/15 13:37:56;;;;;;;;;;;5.20;99.90;;;;;;5065617;28;19917;-49
2022/01/15 13:40:30;;;;;;;;;;;5.20;99.90;;;;;;5049447;28;19963;-52
2022/01/15 13:42:56;;;;;;;;;;;5.20;99.90;;;;;;5065405;28;19964;-49
2022/01/15 13:45:22;;;;;;;;;;;5.20;99.90;;;;;;5068622;28;20020;-51
2022/01/15 13:47:48;;;;;;;;;;;5.20;99.90;;;;;;5049701;28;20672;-50
2022/01/15 13:53:11;;;;;;;;;;;5.20;99.90;;;;;;5068901;28;19981;-52
2022/01/15 13:55:36;;;;;;;;;;;5.10;99.90;;;;;;5072180;28;19927;-51
2022/01/15 13:58:10;;;;;;;;;;;5.10;99.90;;;;;;5036155;28;19928;-48
2022/01/15 14:00:36;;;;;;;;;;;5.00;99.90;;;;;;5069717;28;19916;-48
2022/01/15 14:03:03;;;;;;;;;;;5.00;99.90;;;;;;5034241;28;19927;-51
2022/01/15 14:05:29;;;;;;;;;;;5.00;99.90;;;;;;5052239;28;19927;-49
2022/01/15 14:07:54;;;;;;;;;;;5.00;99.90;;;;;;5067609;28;20357;-47
2022/01/15 14:10:23;;;;;;;;;;;5.00;99.90;;;;;;5052841;28;19990;-48
2022/01/15 14:13:00;;;;;;;;;;;5.00;99.90;;;;;;5043602;28;20597;-51
2022/01/15 14:15:46;;;;;;;;;;;5.00;99.90;;;;;;5081601;28;20299;-48
2022/01/15 14:18:15;;;;;;;;;;;5.00;99.90;;;;;;5033381;28;19930;-53
2022/01/15 14:21:15;;;;;;;;;;;5.00;99.90;;;;;;5079843;28;19916;-50
2022/01/15 14:23:41;;;;;;;;;;;5.00;99.90;;;;;;5069592;28;19970;-51
2022/01/15 14:26:28;;;;;;;;;;;4.90;99.90;;;;;;5046684;28;19940;-51
2022/01/15 14:29:00;;;;;;;;;;;4.90;99.90;;;;;;5069063;28;19920;-51
2022/01/15 14:31:27;;;;;;;;;;;4.90;99.90;;;;;;5048491;28;19924;-51
2022/01/15 14:33:53;;;;;;;;;;;4.90;99.90;;;;;;5044535;28;19927;-49
2022/01/15 14:36:20;;;;;;;;;;;4.80;99.90;;;;;;5064501;28;20541;-48
2022/01/15 14:38:46;;;;;;;;;;;4.90;99.90;;;;;;5047676;28;19934;-50
2022/01/15 14:41:12;;;;;;;;;;;4.90;99.90;;;;;;5066831;28;19924;-51
2022/01/15 14:43:37;;;;;;;;;;;4.80;99.90;;;;;;5045304;28;20841;-48
2022/01/15 14:46:04;;;;;;;;;;;4.80;99.90;;;;;;5048662;28;19924;-49
2022/01/15 14:48:30;;;;;;;;;;;4.90;99.90;;;;;;5045880;28;20001;-50
2022/01/15 14:50:57;;;;;;;;;;;4.80;99.90;;;;;;5052335;28;19917;-53
2022/01/15 14:53:23;;;;;;;;;;;4.90;99.90;;;;;;5067362;28;20262;-52
2022/01/15 14:55:52;;;;;;;;;;;4.80;99.90;;;;;;5048207;28;19920;-53
2022/01/15 14:58:18;;;;;;;;;;;4.80;99.90;;;;;;5052088;28;20343;-50
2022/01/15 15:00:44;;;;;;;;;;;4.80;99.90;;;;;;5066083;28;19916;-52
2022/01/15 15:03:10;;;;;;;;;;;4.70;99.90;;;;;;5066597;28;19943;-51